createdAt,value
2023-05-18T00:00:19.726Z,16.43
2023-05-18T00:02:48.734Z,16.41
2023-05-18T00:05:18.371Z,16.40
2023-05-18T00:07:45.627Z,16.41
2023-05-18T00:10:12.823Z,16.41
2023-05-18T00:12:39.931Z,16.41
2023-05-18T00:15:07.529Z,16.37
2023-05-18T00:17:34.635Z,16.32
2023-05-18T00:20:01.998Z,16.28
2023-05-18T00:22:30.303Z,16.28
2023-05-18T00:24:57.337Z,16.28
2023-05-18T00:27:25.469Z,16.25
2023-05-18T00:29:54.875Z,16.20
2023-05-18T00:32:22.185Z,16.17
2023-05-18T00:34:49.287Z,16.14
2023-05-18T00:37:16.430Z,16.13
2023-05-18T00:39:45.142Z,16.14
2023-05-18T00:42:12.356Z,16.15
2023-05-18T00:44:39.453Z,16.17
2023-05-18T00:47:07.089Z,16.18
2023-05-18T00:49:34.310Z,16.18
2023-05-18T00:52:01.548Z,16.18
2023-05-18T00:54:28.708Z,16.19
2023-05-18T00:56:57.110Z,16.14
2023-05-18T00:59:24.317Z,16.06
2023-05-18T01:01:53.098Z,16.01
2023-05-18T01:04:22.065Z,16.00
2023-05-18T01:06:53.323Z,16.02
2023-05-18T01:09:22.876Z,15.96
2023-05-18T01:11:54.711Z,15.88
2023-05-18T01:14:21.867Z,15.85
2023-05-18T01:16:54.953Z,15.94
2023-05-18T01:19:36.236Z,15.96
2023-05-18T01:22:13.950Z,15.92
2023-05-18T01:24:48.691Z,15.94
2023-05-18T01:27:17.250Z,15.95
2023-05-18T01:29:47.737Z,15.94
2023-05-18T01:32:20.106Z,15.93
2023-05-18T01:34:47.529Z,15.93
2023-05-18T01:37:14.595Z,15.92
2023-05-18T01:39:43.467Z,15.90
2023-05-18T01:42:14.537Z,15.90
2023-05-18T01:44:52.404Z,15.87
2023-05-18T01:47:20.118Z,15.87
2023-05-18T01:49:57.103Z,15.86
2023-05-18T01:52:39.211Z,15.83
2023-05-18T01:55:07.010Z,15.82
2023-05-18T01:57:35.459Z,15.81
2023-05-18T02:00:06.031Z,15.80
2023-05-18T02:02:43.243Z,15.77
2023-05-18T02:05:13.642Z,15.73
2023-05-18T02:07:41.025Z,15.70
2023-05-18T02:10:09.434Z,15.67
2023-05-18T02:12:36.762Z,15.66
2023-05-18T02:15:07.373Z,15.64
2023-05-18T02:17:37.429Z,15.60
2023-05-18T02:20:08.385Z,15.56
2023-05-18T02:22:36.371Z,15.53
2023-05-18T02:25:08.272Z,15.50
2023-05-18T02:27:38.208Z,15.48
2023-05-18T02:30:12.491Z,15.46
2023-05-18T02:32:42.923Z,15.43
2023-05-18T02:35:15.967Z,15.40
2023-05-18T02:37:44.444Z,15.38
2023-05-18T02:40:12.935Z,15.32
2023-05-18T02:42:40.716Z,15.21
2023-05-18T02:45:08.661Z,15.17
2023-05-18T02:47:36.167Z,15.15
2023-05-18T02:50:03.723Z,15.12
2023-05-18T02:52:31.308Z,15.09
2023-05-18T02:55:00.365Z,15.10
2023-05-18T02:57:57.538Z,15.17
2023-05-18T03:00:40.415Z,15.20
2023-05-18T03:03:11.263Z,15.28
2023-05-18T03:05:38.753Z,15.36
2023-05-18T03:08:07.286Z,15.48
2023-05-18T03:10:34.763Z,15.54
2023-05-18T03:13:03.529Z,15.62
2023-05-18T03:15:32.149Z,15.71
2023-05-18T03:18:02.554Z,15.80
2023-05-18T03:20:32.075Z,15.88
2023-05-18T03:22:59.286Z,15.99
2023-05-18T03:25:26.928Z,16.08
2023-05-18T03:27:57.105Z,16.19
2023-05-18T03:30:25.657Z,16.30
2023-05-18T03:32:56.311Z,16.41
2023-05-18T03:35:23.518Z,16.52
2023-05-18T03:37:50.919Z,16.63
2023-05-18T03:40:19.264Z,16.74
2023-05-18T03:42:46.940Z,16.82
2023-05-18T03:45:14.131Z,16.87
2023-05-18T03:47:42.176Z,16.89
2023-05-18T03:50:09.903Z,16.94
2023-05-18T03:52:37.225Z,17.00
2023-05-18T03:55:06.930Z,17.09
2023-05-18T03:57:34.049Z,17.20
2023-05-18T04:00:02.016Z,17.32
2023-05-18T04:02:31.574Z,17.45
2023-05-18T04:04:59.391Z,17.59
2023-05-18T04:07:31.383Z,17.73
2023-05-18T04:09:58.941Z,17.87
2023-05-18T04:12:26.575Z,18.00
2023-05-18T04:14:54.738Z,18.12
2023-05-18T04:17:22.943Z,18.25
2023-05-18T04:19:50.341Z,18.34
2023-05-18T04:22:17.634Z,18.44
2023-05-18T04:24:48.229Z,18.56
2023-05-18T04:27:15.938Z,18.64
2023-05-18T04:29:44.321Z,18.73
2023-05-18T04:32:12.256Z,18.90
2023-05-18T04:34:39.494Z,19.13
2023-05-18T04:37:06.840Z,19.23
2023-05-18T04:39:35.124Z,19.32
2023-05-18T04:42:11.120Z,19.37
2023-05-18T04:44:39.413Z,19.48
2023-05-18T04:47:08.822Z,19.60
2023-05-18T04:49:39.869Z,19.73
2023-05-18T04:52:10.457Z,19.85
2023-05-18T04:54:38.318Z,19.99
2023-05-18T04:57:05.764Z,20.15
2023-05-18T04:59:37.379Z,20.26
2023-05-18T05:02:05.905Z,20.44
2023-05-18T05:04:33.614Z,20.53
2023-05-18T05:07:01.225Z,20.63
2023-05-18T05:09:28.491Z,20.71
2023-05-18T05:11:57.391Z,20.82
2023-05-18T05:14:28.272Z,21.03
2023-05-18T05:16:55.654Z,21.23
2023-05-18T05:19:23.035Z,21.33
2023-05-18T05:21:50.599Z,21.44
2023-05-18T05:24:19.594Z,21.51
2023-05-18T05:26:46.921Z,21.56
2023-05-18T05:29:14.193Z,21.62
2023-05-18T05:31:41.616Z,21.70
2023-05-18T05:34:08.959Z,21.81
2023-05-18T05:36:36.117Z,21.94
2023-05-18T05:39:03.501Z,22.09
2023-05-18T05:41:32.457Z,22.22
2023-05-18T05:44:00.236Z,22.35
2023-05-18T05:46:28.588Z,22.50
2023-05-18T05:48:57.478Z,22.67
2023-05-18T05:51:26.207Z,22.91
2023-05-18T05:53:53.547Z,23.17
2023-05-18T05:56:22.555Z,23.34
2023-05-18T05:58:49.552Z,23.50
2023-05-18T06:01:17.315Z,23.66
2023-05-18T06:03:45.609Z,23.81
2023-05-18T06:06:13.548Z,23.95
2023-05-18T06:08:41.036Z,24.09
2023-05-18T06:11:10.795Z,24.23
2023-05-18T06:13:39.791Z,24.37
2023-05-18T06:16:07.827Z,24.42
2023-05-18T06:18:36.140Z,24.62
2023-05-18T06:21:05.104Z,24.78
2023-05-18T06:23:32.954Z,24.89
2023-05-18T06:26:11.295Z,24.98
2023-05-18T06:28:57.472Z,25.03
2023-05-18T06:31:44.807Z,25.16
2023-05-18T06:34:18.411Z,25.41
2023-05-18T06:36:46.674Z,25.57
2023-05-18T06:39:16.389Z,25.66
2023-05-18T06:41:45.807Z,25.72
2023-05-18T06:44:20.185Z,25.73
2023-05-18T06:47:19.841Z,25.84
2023-05-18T06:49:47.818Z,25.91
2023-05-18T06:52:15.777Z,25.99
2023-05-18T06:54:44.222Z,26.10
2023-05-18T06:57:11.928Z,26.21
2023-05-18T06:59:39.740Z,26.32
2023-05-18T07:02:07.339Z,26.39
2023-05-18T07:04:34.780Z,26.48
2023-05-18T07:07:01.819Z,26.53
2023-05-18T07:09:28.960Z,26.60
2023-05-18T07:11:56.044Z,26.68
2023-05-18T07:14:24.165Z,26.79
2023-05-18T07:16:51.217Z,26.88
2023-05-18T07:19:18.270Z,26.98
2023-05-18T07:21:45.248Z,27.06
2023-05-18T07:24:12.339Z,27.14
2023-05-18T07:26:39.414Z,27.23
2023-05-18T07:29:06.529Z,27.27
2023-05-18T07:31:34.572Z,27.45
2023-05-18T07:34:01.673Z,27.60
2023-05-18T07:36:28.905Z,27.65
2023-05-18T07:38:56.969Z,27.66
2023-05-18T07:41:24.284Z,27.63
2023-05-18T07:43:52.810Z,27.69
2023-05-18T07:46:20.113Z,27.79
2023-05-18T07:48:47.225Z,27.98
2023-05-18T07:51:14.277Z,28.14
2023-05-18T07:53:41.755Z,28.25
2023-05-18T07:56:08.929Z,28.28
2023-05-18T07:58:36.462Z,28.38
2023-05-18T08:01:03.878Z,28.45
2023-05-18T08:03:31.006Z,28.34
2023-05-18T08:06:00.307Z,28.28
2023-05-18T08:08:28.060Z,28.28
2023-05-18T08:10:55.156Z,28.31
2023-05-18T08:13:22.418Z,28.36
2023-05-18T08:15:59.243Z,28.42
2023-05-18T08:18:36.491Z,28.48
2023-05-18T08:21:04.478Z,28.54
2023-05-18T08:23:31.486Z,28.61
2023-05-18T08:26:00.343Z,28.69
2023-05-18T08:28:27.755Z,28.76
2023-05-18T08:30:54.797Z,28.85
2023-05-18T08:33:21.820Z,28.91
2023-05-18T08:35:49.277Z,28.97
2023-05-18T08:38:17.645Z,29.06
2023-05-18T08:41:08.906Z,29.10
2023-05-18T08:43:38.548Z,29.14
2023-05-18T08:46:07.589Z,29.17
2023-05-18T08:48:34.809Z,29.21
2023-05-18T08:51:03.024Z,29.19
2023-05-18T08:53:31.522Z,29.19
2023-05-18T08:55:59.512Z,29.27
2023-05-18T08:58:34.417Z,29.28
2023-05-18T09:01:01.994Z,29.25
2023-05-18T09:03:29.432Z,29.30
2023-05-18T09:05:56.462Z,29.37
2023-05-18T09:08:23.951Z,29.37
2023-05-18T09:10:50.940Z,29.43
2023-05-18T09:13:20.838Z,29.48
2023-05-18T09:15:49.498Z,29.57
2023-05-18T09:18:16.544Z,29.66
2023-05-18T09:20:43.815Z,29.71
2023-05-18T09:23:12.292Z,29.73
2023-05-18T09:25:44.863Z,29.74
2023-05-18T09:28:15.152Z,29.69
2023-05-18T09:30:43.128Z,29.59
2023-05-18T09:33:21.990Z,29.56
2023-05-18T09:35:51.037Z,29.65
2023-05-18T09:38:22.240Z,29.76
2023-05-18T09:40:50.100Z,29.74
2023-05-18T09:43:18.728Z,29.77
2023-05-18T09:45:47.102Z,29.81
2023-05-18T09:48:16.982Z,29.89
2023-05-18T09:50:47.612Z,30.06
2023-05-18T09:53:14.928Z,30.04
2023-05-18T09:55:46.797Z,30.01
2023-05-18T09:58:13.940Z,29.93
2023-05-18T10:00:44.974Z,29.80
2023-05-18T10:03:22.003Z,29.66
2023-05-18T10:05:49.671Z,29.80
2023-05-18T10:08:17.724Z,29.93
2023-05-18T10:10:46.406Z,30.05
2023-05-18T10:13:19.655Z,30.18
2023-05-18T10:15:55.026Z,30.34
2023-05-18T10:18:27.005Z,30.51
2023-05-18T10:20:57.202Z,30.62
2023-05-18T10:23:26.877Z,30.66
2023-05-18T10:25:54.111Z,30.63
2023-05-18T10:28:30.351Z,30.58
2023-05-18T10:30:58.726Z,30.55
2023-05-18T10:33:30.096Z,30.34
2023-05-18T10:35:57.875Z,30.21
2023-05-18T10:38:28.510Z,30.13
2023-05-18T10:40:56.678Z,30.05
2023-05-18T10:43:27.744Z,30.01
2023-05-18T10:45:59.893Z,30.04
2023-05-18T10:48:27.986Z,30.05
2023-05-18T10:50:56.837Z,30.16
2023-05-18T10:53:27.078Z,30.30
2023-05-18T10:55:54.779Z,30.47
2023-05-18T10:58:23.066Z,30.55
2023-05-18T11:00:54.061Z,30.54
2023-05-18T11:03:23.636Z,30.56
2023-05-18T11:05:52.438Z,30.58
2023-05-18T11:08:29.204Z,30.61
2023-05-18T11:11:02.138Z,30.64
2023-05-18T11:13:32.620Z,30.69
2023-05-18T11:16:01.872Z,30.80
2023-05-18T11:18:38.572Z,30.89
2023-05-18T11:21:28.944Z,30.97
2023-05-18T11:24:18.318Z,30.98
2023-05-18T11:26:56.164Z,31.09
2023-05-18T11:29:37.448Z,31.22
2023-05-18T11:32:05.200Z,31.30
2023-05-18T11:34:46.640Z,31.29
2023-05-18T11:37:38.838Z,31.33
2023-05-18T11:40:11.785Z,31.24
2023-05-18T11:42:40.131Z,31.20
2023-05-18T11:45:11.469Z,31.16
2023-05-18T11:47:42.015Z,31.06
2023-05-18T11:50:11.984Z,31.02
2023-05-18T11:52:49.338Z,31.10
2023-05-18T11:55:17.319Z,31.19
2023-05-18T11:57:47.298Z,31.23
2023-05-18T12:00:16.337Z,31.19
2023-05-18T12:02:45.584Z,31.07
2023-05-18T12:05:13.152Z,30.90
2023-05-18T12:07:40.663Z,30.77
2023-05-18T12:10:10.019Z,30.76
2023-05-18T12:12:37.108Z,30.81
2023-05-18T12:15:05.663Z,30.92
2023-05-18T12:17:40.856Z,31.05
2023-05-18T12:20:12.606Z,31.20
2023-05-18T12:22:43.716Z,31.39
2023-05-18T12:25:11.037Z,31.53
2023-05-18T12:27:40.132Z,31.61
2023-05-18T12:30:14.001Z,31.61
2023-05-18T12:32:48.669Z,31.61
2023-05-18T12:35:15.707Z,31.60
2023-05-18T12:37:46.486Z,31.58
2023-05-18T12:40:14.788Z,31.64
2023-05-18T12:43:11.420Z,31.71
2023-05-18T12:45:38.438Z,31.72
2023-05-18T12:48:06.327Z,31.70
2023-05-18T12:50:33.484Z,31.64
2023-05-18T12:53:02.155Z,31.65
2023-05-18T12:55:31.357Z,31.62
2023-05-18T12:58:17.013Z,31.70
2023-05-18T13:00:45.357Z,31.85
2023-05-18T13:03:22.503Z,31.97
2023-05-18T13:06:04.779Z,32.11
2023-05-18T13:08:32.342Z,32.24
2023-05-18T13:11:14.206Z,32.27
2023-05-18T13:13:59.006Z,32.26
2023-05-18T13:16:26.909Z,32.25
2023-05-18T13:19:02.189Z,32.23
2023-05-18T13:21:29.437Z,32.31
2023-05-18T13:23:56.475Z,32.43
2023-05-18T13:26:24.181Z,32.56
2023-05-18T13:28:52.607Z,32.63
2023-05-18T13:31:20.236Z,32.68
2023-05-18T13:33:47.551Z,32.79
2023-05-18T13:36:14.761Z,32.93
2023-05-18T13:38:43.182Z,33.05
2023-05-18T13:41:12.732Z,33.11
2023-05-18T13:43:39.970Z,33.14
2023-05-18T13:46:07.053Z,33.09
2023-05-18T13:48:34.283Z,33.06
2023-05-18T13:51:04.434Z,33.08
2023-05-18T13:53:31.689Z,33.13
2023-05-18T13:55:58.716Z,33.19
2023-05-18T13:58:25.828Z,33.24
2023-05-18T14:00:54.709Z,33.28
2023-05-18T14:03:23.174Z,33.29
2023-05-18T14:05:50.421Z,33.40
2023-05-18T14:08:17.437Z,33.46
2023-05-18T14:10:44.601Z,33.55
2023-05-18T14:13:11.610Z,33.75
2023-05-18T14:15:38.617Z,34.10
2023-05-18T14:18:05.852Z,34.54
2023-05-18T14:20:34.199Z,34.93
2023-05-18T14:23:04.386Z,35.26
2023-05-18T14:25:32.056Z,35.65
2023-05-18T14:27:59.071Z,36.08
2023-05-18T14:30:26.770Z,36.53
2023-05-18T14:32:53.983Z,36.90
2023-05-18T14:35:22.155Z,37.04
2023-05-18T14:37:49.176Z,37.09
2023-05-18T14:40:16.209Z,37.28
2023-05-18T14:42:43.727Z,37.49
2023-05-18T14:45:10.982Z,37.66
2023-05-18T14:47:38.032Z,37.64
2023-05-18T14:50:06.431Z,37.67
2023-05-18T14:52:33.406Z,37.94
2023-05-18T14:55:00.439Z,38.22
2023-05-18T14:57:27.517Z,38.22
2023-05-18T14:59:54.656Z,37.95
2023-05-18T15:02:21.674Z,37.69
2023-05-18T15:04:48.741Z,37.71
2023-05-18T15:07:22.911Z,37.80
2023-05-18T15:09:49.985Z,37.89
2023-05-18T15:12:19.877Z,38.09
2023-05-18T15:14:46.913Z,38.16
2023-05-18T15:17:15.201Z,38.32
2023-05-18T15:19:42.293Z,38.38
2023-05-18T15:22:09.570Z,38.34
2023-05-18T15:24:38.078Z,38.34
2023-05-18T15:27:05.322Z,38.22
2023-05-18T15:29:32.364Z,38.15
2023-05-18T15:31:59.446Z,38.19
2023-05-18T15:34:26.498Z,38.17
2023-05-18T15:36:53.941Z,38.20
2023-05-18T15:39:21.083Z,38.20
2023-05-18T15:41:48.150Z,38.22
2023-05-18T15:44:15.250Z,38.13
2023-05-18T15:46:42.249Z,38.13
2023-05-18T15:49:09.320Z,38.18
2023-05-18T15:51:36.403Z,38.25
2023-05-18T15:54:03.502Z,38.24
2023-05-18T15:56:30.565Z,38.26
2023-05-18T15:58:57.613Z,38.49
2023-05-18T16:01:24.789Z,38.61
2023-05-18T16:03:51.902Z,38.49
2023-05-18T16:06:18.977Z,38.39
2023-05-18T16:08:46.354Z,38.37
2023-05-18T16:11:13.364Z,38.33
2023-05-18T16:13:40.442Z,38.30
2023-05-18T16:16:10.372Z,38.21
2023-05-18T16:18:37.598Z,38.00
2023-05-18T16:21:04.692Z,37.67
2023-05-18T16:23:31.735Z,37.33
2023-05-18T16:26:00.004Z,37.14
2023-05-18T16:28:27.098Z,37.13
2023-05-18T16:30:54.232Z,37.17
2023-05-18T16:33:21.190Z,37.12
2023-05-18T16:35:48.415Z,37.06
2023-05-18T16:38:15.542Z,36.96
2023-05-18T16:40:42.997Z,36.81
2023-05-18T16:43:10.260Z,36.50
2023-05-18T16:45:37.325Z,35.95
2023-05-18T16:48:04.460Z,35.32
2023-05-18T16:50:32.197Z,34.61
2023-05-18T16:52:59.447Z,33.88
2023-05-18T16:55:26.888Z,33.26
2023-05-18T16:57:56.174Z,32.80
2023-05-18T17:00:23.642Z,32.45
2023-05-18T17:02:52.694Z,32.17
2023-05-18T17:05:23.169Z,31.89
2023-05-18T17:07:51.064Z,31.58
2023-05-18T17:10:18.184Z,31.27
2023-05-18T17:12:45.185Z,30.92
2023-05-18T17:15:16.505Z,30.60
2023-05-18T17:17:43.992Z,30.31
2023-05-18T17:20:11.336Z,30.01
2023-05-18T17:22:38.518Z,29.71
2023-05-18T17:25:06.131Z,29.41
2023-05-18T17:27:33.133Z,29.15
2023-05-18T17:30:00.232Z,28.91
2023-05-18T17:32:27.222Z,28.68
2023-05-18T17:34:54.260Z,28.46
2023-05-18T17:37:21.432Z,28.20
2023-05-18T17:39:48.436Z,27.88
2023-05-18T17:42:16.232Z,27.49
2023-05-18T17:44:44.207Z,27.18
2023-05-18T17:47:13.605Z,26.92
2023-05-18T17:49:40.793Z,26.64
2023-05-18T17:52:07.862Z,26.37
2023-05-18T17:54:34.864Z,26.13
2023-05-18T17:57:01.986Z,25.92
2023-05-18T17:59:28.994Z,25.71
2023-05-18T18:01:55.993Z,25.50
2023-05-18T18:04:23.374Z,25.27
2023-05-18T18:06:54.395Z,25.06
2023-05-18T18:09:22.453Z,24.86
2023-05-18T18:11:49.568Z,24.68
2023-05-18T18:14:17.562Z,24.51
2023-05-18T18:16:44.648Z,24.34
2023-05-18T18:19:12.217Z,24.06
2023-05-18T18:21:39.342Z,23.81
2023-05-18T18:24:06.663Z,23.66
2023-05-18T18:26:38.884Z,23.53
2023-05-18T18:29:06.238Z,23.45
2023-05-18T18:31:33.439Z,23.36
2023-05-18T18:34:06.568Z,23.28
2023-05-18T18:36:33.794Z,23.17
2023-05-18T18:39:00.826Z,23.04
2023-05-18T18:41:27.979Z,22.95
2023-05-18T18:43:57.244Z,22.87
2023-05-18T18:46:25.856Z,22.81
2023-05-18T18:48:52.979Z,22.74
2023-05-18T18:51:20.044Z,22.68
2023-05-18T18:53:47.573Z,22.60
2023-05-18T18:56:14.619Z,22.53
2023-05-18T18:58:42.057Z,22.46
2023-05-18T19:01:09.176Z,22.41
2023-05-18T19:03:36.282Z,22.36
2023-05-18T19:06:03.503Z,22.31
2023-05-18T19:08:33.546Z,22.27
2023-05-18T19:11:00.772Z,22.23
2023-05-18T19:13:27.994Z,22.21
2023-05-18T19:15:55.093Z,22.17
2023-05-18T19:18:22.299Z,22.12
2023-05-18T19:20:49.510Z,22.07
2023-05-18T19:23:16.514Z,22.02
2023-05-18T19:25:43.607Z,21.96
2023-05-18T19:28:10.698Z,21.93
2023-05-18T19:30:37.784Z,21.87
2023-05-18T19:33:04.852Z,21.78
2023-05-18T19:35:33.282Z,21.70
2023-05-18T19:38:02.566Z,21.63
2023-05-18T19:40:29.802Z,21.55
2023-05-18T19:42:59.855Z,21.46
2023-05-18T19:45:27.176Z,21.39
2023-05-18T19:47:54.334Z,21.31
2023-05-18T19:50:21.565Z,21.25
2023-05-18T19:52:49.723Z,21.20
2023-05-18T19:55:17.440Z,21.14
2023-05-18T19:57:44.617Z,21.08
2023-05-18T20:00:12.014Z,21.04
2023-05-18T20:02:41.877Z,21.00
2023-05-18T20:05:09.601Z,20.95
2023-05-18T20:07:36.639Z,20.89
2023-05-18T20:10:03.784Z,20.84
2023-05-18T20:12:32.329Z,20.79
2023-05-18T20:14:59.457Z,20.75
2023-05-18T20:17:26.627Z,20.72
2023-05-18T20:19:56.006Z,20.70
2023-05-18T20:22:23.106Z,20.67
2023-05-18T20:24:51.024Z,20.64
2023-05-18T20:27:20.870Z,20.62
2023-05-18T20:29:48.042Z,20.59
2023-05-18T20:32:15.317Z,20.56
2023-05-18T20:34:44.614Z,20.54
2023-05-18T20:37:14.297Z,20.51
2023-05-18T20:39:42.907Z,20.51
2023-05-18T20:42:12.882Z,20.48
2023-05-18T20:44:40.249Z,20.49
2023-05-18T20:47:07.411Z,20.50
2023-05-18T20:49:34.453Z,20.51
2023-05-18T20:52:01.513Z,20.53
2023-05-18T20:54:29.674Z,20.55
2023-05-18T20:56:56.971Z,20.56
2023-05-18T20:59:24.615Z,20.57
2023-05-18T21:01:51.685Z,20.57
2023-05-18T21:04:19.471Z,20.58
2023-05-18T21:06:46.950Z,20.60
2023-05-18T21:09:13.957Z,20.64
2023-05-18T21:11:41.478Z,20.64
2023-05-18T21:14:08.504Z,20.65
2023-05-18T21:16:37.255Z,20.67
2023-05-18T21:19:04.354Z,20.68
2023-05-18T21:21:31.928Z,20.69
2023-05-18T21:23:59.003Z,20.72
2023-05-18T21:26:26.685Z,20.75
2023-05-18T21:28:54.308Z,20.78
2023-05-18T21:31:21.390Z,20.83
2023-05-18T21:33:48.549Z,20.86
2023-05-18T21:36:15.840Z,20.89
2023-05-18T21:38:44.500Z,20.91
2023-05-18T21:41:11.537Z,20.92
2023-05-18T21:43:38.555Z,20.94
2023-05-18T21:46:07.770Z,20.97
2023-05-18T21:48:36.340Z,21.00
2023-05-18T21:51:04.516Z,21.01
2023-05-18T21:53:31.544Z,21.03
2023-05-18T21:55:58.618Z,21.04
2023-05-18T21:58:25.732Z,21.03
2023-05-18T22:00:52.895Z,21.01
2023-05-18T22:03:19.974Z,21.01
2023-05-18T22:05:47.420Z,21.03
2023-05-18T22:08:14.493Z,21.04
2023-05-18T22:10:42.312Z,21.07
2023-05-18T22:13:09.584Z,21.09
2023-05-18T22:15:37.484Z,21.11
2023-05-18T22:18:04.800Z,21.12
2023-05-18T22:20:32.584Z,21.12
2023-05-18T22:22:59.850Z,21.11
2023-05-18T22:25:26.938Z,21.10
2023-05-18T22:27:53.938Z,21.08
2023-05-18T22:30:21.126Z,21.09
2023-05-18T22:32:48.149Z,21.11
2023-05-18T22:35:15.370Z,21.14
2023-05-18T22:37:42.408Z,21.18
2023-05-18T22:40:10.043Z,21.22
2023-05-18T22:42:37.042Z,21.25
2023-05-18T22:45:04.310Z,21.28
2023-05-18T22:47:31.405Z,21.30
2023-05-18T22:49:58.563Z,21.32
2023-05-18T22:52:26.787Z,21.30
2023-05-18T22:54:53.823Z,21.32
2023-05-18T22:57:20.830Z,21.35
2023-05-18T22:59:47.868Z,21.38
2023-05-18T23:02:15.120Z,21.41
2023-05-18T23:04:42.284Z,21.43
2023-05-18T23:07:09.380Z,21.45
2023-05-18T23:09:38.617Z,21.48
2023-05-18T23:12:06.801Z,21.49
2023-05-18T23:14:33.967Z,21.50
2023-05-18T23:17:01.125Z,21.52
2023-05-18T23:19:29.142Z,21.53
2023-05-18T23:21:56.737Z,21.53
2023-05-18T23:24:23.745Z,21.52
2023-05-18T23:26:51.015Z,21.54
2023-05-18T23:29:18.051Z,21.56
2023-05-18T23:31:45.247Z,21.59
2023-05-18T23:34:12.590Z,21.60
2023-05-18T23:36:42.851Z,21.61
2023-05-18T23:39:10.356Z,21.61
2023-05-18T23:41:37.645Z,21.59
2023-05-18T23:44:05.059Z,21.60
2023-05-18T23:46:32.400Z,21.59
2023-05-18T23:49:01.776Z,21.59
2023-05-18T23:51:30.037Z,21.61
2023-05-18T23:53:57.073Z,21.61
2023-05-18T23:56:25.087Z,21.60
2023-05-18T23:58:52.380Z,21.59
